createdAt,value
2023-09-27T06:44:11.090Z,97125.78
2023-09-27T06:46:24.042Z,97123.03
2023-09-27T06:47:28.925Z,97127.03
2023-09-27T06:48:30.705Z,97124.16
2023-09-27T06:49:32.173Z,97124.06
2023-09-27T06:50:33.643Z,97122.56
2023-09-27T06:51:35.354Z,97120.53
2023-09-27T06:52:38.900Z,97117.97
2023-09-27T06:53:40.914Z,97122.25
2023-09-27T06:54:42.321Z,97128.13
2023-09-27T06:55:46.612Z,97124.78
2023-09-27T06:56:47.989Z,97122.28
2023-09-27T06:57:53.526Z,97111.31
2023-09-27T06:58:54.919Z,97111.75
2023-09-27T06:59:56.359Z,97116.31
2023-09-27T07:00:57.868Z,97111.28
2023-09-27T07:01:59.326Z,97110.69
2023-09-27T07:03:00.839Z,97108.47
2023-09-27T07:04:05.247Z,97106.84
2023-09-27T07:05:07.116Z,97111.97
2023-09-27T07:06:08.818Z,97112.81
2023-09-27T07:07:12.172Z,97118.84
2023-09-27T07:08:15.038Z,97111.81
2023-09-27T07:09:17.642Z,97116.81
2023-09-27T07:10:19.453Z,97120.38
2023-09-27T07:11:21.167Z,97122.31
2023-09-27T07:12:22.565Z,97118.50
2023-09-27T07:13:23.941Z,97118.34
2023-09-27T07:14:25.612Z,97111.16
2023-09-27T07:15:27.115Z,97114.41
2023-09-27T07:16:30.508Z,97118.56
2023-09-27T07:17:32.859Z,97114.38
2023-09-27T07:18:36.291Z,97111.41
2023-09-27T07:19:38.200Z,97114.94
2023-09-27T07:20:41.527Z,97116.50
2023-09-27T07:21:43.001Z,97119.56
2023-09-27T07:22:45.138Z,97117.03
2023-09-27T07:23:48.616Z,97117.16
2023-09-27T07:24:50.021Z,97114.16
2023-09-27T07:25:51.399Z,97119.13
2023-09-27T07:26:54.050Z,97108.50
2023-09-27T07:27:57.160Z,97113.69
2023-09-27T07:28:58.581Z,97112.50
2023-09-27T07:30:00.242Z,97115.34
2023-09-27T07:31:01.723Z,97112.25
2023-09-27T07:32:04.709Z,97110.78
2023-09-27T07:33:12.955Z,97113.69
2023-09-27T07:34:15.138Z,97108.44
2023-09-27T07:35:18.094Z,97116.34
2023-09-27T07:36:21.876Z,97109.75
2023-09-27T07:37:23.259Z,97107.72
2023-09-27T07:38:24.697Z,97114.34
2023-09-27T07:39:26.683Z,97111.34
2023-09-27T07:40:28.573Z,97114.25
2023-09-27T07:41:30.003Z,97117.75
2023-09-27T07:42:31.579Z,97110.00
2023-09-27T07:43:33.042Z,97112.47
2023-09-27T07:44:34.523Z,97110.28
2023-09-27T07:45:37.788Z,97113.91
2023-09-27T07:46:39.487Z,97114.31
2023-09-27T07:47:41.181Z,97115.94
2023-09-27T07:48:43.722Z,97108.75
2023-09-27T07:49:45.094Z,97106.28
2023-09-27T07:50:46.620Z,97114.88
2023-09-27T07:51:48.012Z,97112.97
2023-09-27T07:52:49.592Z,97112.94
2023-09-27T07:53:51.055Z,97121.13
2023-09-27T07:54:53.033Z,97109.06
2023-09-27T07:55:56.651Z,97115.31
2023-09-27T07:57:00.668Z,97110.34
2023-09-27T07:58:06.035Z,97113.44
2023-09-27T07:59:08.069Z,97109.16
2023-09-27T08:00:09.977Z,97115.00
2023-09-27T08:01:13.697Z,97105.47
2023-09-27T08:02:16.141Z,97112.09
2023-09-27T08:03:20.127Z,97102.81
2023-09-27T08:04:21.857Z,97105.75
2023-09-27T08:05:23.482Z,97113.59
2023-09-27T08:06:24.848Z,97102.50
2023-09-27T08:07:26.308Z,97108.25
2023-09-27T08:08:27.943Z,97107.28
2023-09-27T08:10:36.751Z,97103.78
2023-09-27T08:11:39.034Z,97103.13
2023-09-27T08:12:40.700Z,97105.03
2023-09-27T08:13:42.306Z,97104.47
2023-09-27T08:14:43.850Z,97100.97
2023-09-27T08:15:50.015Z,97095.06
2023-09-27T08:16:52.178Z,97095.41
2023-09-27T08:17:53.809Z,97098.13
2023-09-27T08:18:55.215Z,97094.69
2023-09-27T08:19:56.648Z,97099.19
2023-09-27T08:20:58.046Z,97104.09
2023-09-27T08:21:59.544Z,97102.97
2023-09-27T08:23:01.015Z,97103.38
2023-09-27T08:24:02.496Z,97104.53
2023-09-27T08:25:07.295Z,97102.50
2023-09-27T08:26:13.417Z,97107.69
2023-09-27T08:27:15.034Z,97105.41
2023-09-27T08:28:17.693Z,97101.59
2023-09-27T08:29:21.632Z,97101.44
2023-09-27T08:30:23.570Z,97097.72
2023-09-27T08:31:24.996Z,97103.13
2023-09-27T08:32:27.169Z,97105.78
2023-09-27T08:33:28.950Z,97103.66
2023-09-27T08:34:30.534Z,97101.56
2023-09-27T08:35:32.034Z,97100.47
2023-09-27T08:36:33.572Z,97089.81
2023-09-27T08:37:35.532Z,97090.91
2023-09-27T08:38:37.321Z,97080.97
2023-09-27T08:39:42.316Z,97094.41
2023-09-27T08:40:43.937Z,97083.94
2023-09-27T08:41:45.640Z,97084.44
2023-09-27T08:42:51.827Z,97079.63
2023-09-27T08:43:53.573Z,97070.00
2023-09-27T08:44:55.323Z,97075.50
2023-09-27T08:45:57.042Z,97076.88
2023-09-27T08:46:59.154Z,97077.03
2023-09-27T08:48:00.757Z,97076.50
2023-09-27T08:49:03.799Z,97079.88
2023-09-27T08:50:06.287Z,97070.97
2023-09-27T08:51:08.013Z,97080.47
2023-09-27T08:52:10.391Z,97080.06
2023-09-27T08:53:12.145Z,97074.44
2023-09-27T08:54:17.726Z,97068.94
2023-09-27T08:55:20.568Z,97072.06
2023-09-27T08:56:24.327Z,97067.13
2023-09-27T08:57:30.169Z,97070.16
2023-09-27T08:58:32.908Z,97061.38
2023-09-27T08:59:34.374Z,97062.38
2023-09-27T09:00:36.101Z,97057.06
2023-09-27T09:01:40.061Z,97054.69
2023-09-27T09:02:45.060Z,97054.75
2023-09-27T09:03:48.051Z,97055.47
2023-09-27T09:04:50.489Z,97053.22
2023-09-27T09:05:52.192Z,97056.66
2023-09-27T09:06:53.608Z,97050.06
2023-09-27T09:08:02.666Z,97046.88
2023-09-27T09:09:13.988Z,97038.53
2023-09-27T09:10:17.077Z,97043.44
2023-09-27T09:11:19.936Z,97045.06
2023-09-27T09:12:21.470Z,97045.38
2023-09-27T09:13:24.220Z,97045.28
2023-09-27T09:14:39.147Z,97048.44
2023-09-27T09:15:48.278Z,97046.34
2023-09-27T09:16:54.992Z,97041.38
2023-09-27T09:18:00.119Z,97038.44
2023-09-27T09:19:19.154Z,97038.16
2023-09-27T09:20:33.114Z,97039.84
2023-09-27T09:21:34.666Z,97034.44
2023-09-27T09:22:42.972Z,97025.94
2023-09-27T09:23:48.754Z,97035.97
2023-09-27T09:24:58.279Z,97028.13
2023-09-27T09:26:00.276Z,97031.38
2023-09-27T09:27:17.557Z,97034.34
2023-09-27T09:28:21.290Z,97031.59
2023-09-27T09:29:22.812Z,97032.69
2023-09-27T09:30:34.630Z,97026.81
2023-09-27T09:31:36.127Z,97029.88
2023-09-27T09:32:49.266Z,97030.53
2023-09-27T09:34:09.395Z,97033.09
2023-09-27T09:35:11.068Z,97023.44
2023-09-27T09:36:15.905Z,97028.25
2023-09-27T09:37:23.076Z,97024.00
2023-09-27T09:38:30.641Z,97032.44
2023-09-27T09:39:32.300Z,97021.94
2023-09-27T09:40:35.195Z,97021.97
2023-09-27T09:41:49.916Z,97022.34
2023-09-27T09:42:52.442Z,97011.50
2023-09-27T09:43:53.911Z,97020.56
2023-09-27T09:45:07.769Z,97017.28
2023-09-27T09:46:09.937Z,97014.88
2023-09-27T09:47:13.320Z,97014.28
2023-09-27T09:48:14.963Z,97008.91
2023-09-27T09:49:17.301Z,97017.59
2023-09-27T09:50:19.998Z,97019.75
2023-09-27T09:51:23.689Z,97012.88
2023-09-27T09:52:32.075Z,97017.09
2023-09-27T09:53:41.096Z,97014.19
2023-09-27T09:54:48.351Z,97012.19
2023-09-27T09:56:26.711Z,97009.03
2023-09-27T09:57:31.522Z,97014.69
2023-09-27T09:58:51.799Z,97009.81
2023-09-27T09:59:58.644Z,97009.25
2023-09-27T10:01:03.826Z,97016.44
2023-09-27T10:02:20.734Z,97014.31
2023-09-27T10:03:23.725Z,97016.75
2023-09-27T10:04:27.267Z,97012.47
2023-09-27T10:05:39.664Z,97019.16
2023-09-27T10:06:48.980Z,97011.84
2023-09-27T10:07:52.436Z,97006.34
2023-09-27T10:08:55.601Z,97002.28
2023-09-27T10:09:58.428Z,96997.75
2023-09-27T10:11:07.161Z,96998.59
2023-09-27T10:12:11.471Z,96997.00
2023-09-27T10:13:14.638Z,96998.84
2023-09-27T10:14:17.920Z,96996.72
2023-09-27T10:15:21.712Z,96999.03
2023-09-27T10:16:25.184Z,96991.88
2023-09-27T10:17:27.862Z,96996.47
2023-09-27T10:18:31.395Z,97001.25
2023-09-27T10:19:33.803Z,96996.13
2023-09-27T10:20:35.289Z,96983.13
2023-09-27T10:22:02.287Z,97002.41
2023-09-27T10:23:11.977Z,96999.25
2023-09-27T10:24:13.610Z,96993.66
2023-09-27T10:25:24.477Z,96988.66
2023-09-27T10:26:33.697Z,96983.00
2023-09-27T10:28:00.433Z,96994.28
2023-09-27T10:29:01.961Z,96983.13
2023-09-27T10:30:03.815Z,96977.47
2023-09-27T10:31:06.237Z,96979.75
2023-09-27T10:32:07.752Z,96982.34
2023-09-27T10:33:25.688Z,96984.50
2023-09-27T10:34:27.424Z,96977.66
2023-09-27T10:35:29.029Z,96980.16
2023-09-27T10:36:31.969Z,96971.09
2023-09-27T10:37:58.400Z,96975.81
2023-09-27T10:38:59.956Z,96979.25
2023-09-27T10:40:21.901Z,96976.97
2023-09-27T10:41:32.819Z,96976.97
2023-09-27T10:42:43.631Z,96977.75
2023-09-27T10:43:47.276Z,96975.88
2023-09-27T10:44:51.378Z,96975.78
2023-09-27T10:45:57.114Z,96976.75
2023-09-27T10:47:04.590Z,96975.97
2023-09-27T10:48:20.096Z,96973.72
2023-09-27T10:49:27.035Z,96970.72
2023-09-27T10:50:30.078Z,96971.03
2023-09-27T10:51:31.885Z,96977.72
2023-09-27T10:52:33.608Z,96970.31
2023-09-27T10:53:35.429Z,96972.75
2023-09-27T10:54:36.902Z,96967.19
2023-09-27T10:55:39.828Z,96970.06
2023-09-27T10:56:46.125Z,96974.63
2023-09-27T10:57:47.711Z,96976.78
2023-09-27T10:58:50.868Z,96972.09
2023-09-27T10:59:53.375Z,96980.75
2023-09-27T11:01:01.752Z,96976.66
2023-09-27T11:02:07.914Z,96973.50
2023-09-27T11:03:19.238Z,96966.13
2023-09-27T11:04:25.165Z,96963.41
2023-09-27T11:05:27.107Z,96960.94
2023-09-27T11:06:30.054Z,96957.28
2023-09-27T11:07:48.268Z,96955.63
2023-09-27T11:08:49.894Z,96957.34
2023-09-27T11:09:53.659Z,96954.75
2023-09-27T11:10:57.916Z,96954.47
2023-09-27T11:12:00.333Z,96954.06
2023-09-27T11:13:20.627Z,96947.25
2023-09-27T11:14:26.066Z,96948.31
2023-09-27T11:15:27.944Z,96944.03
2023-09-27T11:16:30.704Z,96944.66
2023-09-27T11:17:32.201Z,96950.81
2023-09-27T11:18:37.420Z,96942.72
2023-09-27T11:19:39.040Z,96954.91
2023-09-27T11:20:43.943Z,96947.13
2023-09-27T11:21:45.809Z,96944.19
2023-09-27T11:22:47.310Z,96939.13
2023-09-27T11:24:08.328Z,96937.47
2023-09-27T11:25:31.611Z,96942.25
2023-09-27T11:26:34.006Z,96942.47
2023-09-27T11:27:35.669Z,96933.84
2023-09-27T11:28:37.135Z,96932.78
2023-09-27T11:29:38.657Z,96926.25
2023-09-27T11:30:40.327Z,96921.72
2023-09-27T11:31:41.724Z,96923.06
2023-09-27T11:32:50.720Z,96923.47
2023-09-27T11:33:52.780Z,96924.69
2023-09-27T11:34:58.279Z,96918.31
2023-09-27T11:36:04.813Z,96921.16
2023-09-27T11:37:07.017Z,96925.31
2023-09-27T11:38:13.788Z,96916.34
2023-09-27T11:39:17.199Z,96910.13
2023-09-27T11:40:33.233Z,96906.19
2023-09-27T11:41:34.935Z,96914.66
2023-09-27T11:42:36.419Z,96910.44
2023-09-27T11:43:37.877Z,96907.44
2023-09-27T11:44:39.346Z,96903.28
2023-09-27T11:45:45.320Z,96902.59
2023-09-27T11:46:49.681Z,96909.59
2023-09-27T11:47:52.324Z,96896.16
2023-09-27T11:48:53.850Z,96902.78
2023-09-27T11:49:55.219Z,96899.31
2023-09-27T11:50:59.208Z,96894.03
2023-09-27T11:52:11.411Z,96900.50
2023-09-27T11:53:13.745Z,96891.81
2023-09-27T11:54:16.073Z,96886.47
2023-09-27T11:55:18.247Z,96880.97
2023-09-27T11:56:19.720Z,96879.69
2023-09-27T11:57:21.157Z,96886.84
2023-09-27T11:58:24.476Z,96887.31
2023-09-27T11:59:25.972Z,96883.72
2023-09-27T12:00:28.814Z,96881.56
2023-09-27T12:01:30.281Z,96876.66
2023-09-27T12:02:40.312Z,96878.09
2023-09-27T12:03:45.953Z,96873.56
2023-09-27T12:04:48.451Z,96875.75
2023-09-27T12:05:50.522Z,96875.06
2023-09-27T12:06:52.254Z,96868.09
2023-09-27T12:07:53.998Z,96861.44
2023-09-27T12:09:01.879Z,96866.69
2023-09-27T12:10:03.931Z,96861.78
2023-09-27T12:11:05.522Z,96864.94
2023-09-27T12:12:07.264Z,96860.56
2023-09-27T12:13:08.738Z,96855.94
2023-09-27T12:14:10.577Z,96870.66
2023-09-27T12:15:12.076Z,96864.44
2023-09-27T12:16:13.785Z,96870.06
2023-09-27T12:17:15.370Z,96865.41
2023-09-27T12:18:16.943Z,96853.41
2023-09-27T12:19:18.398Z,96858.66
2023-09-27T12:20:36.292Z,96861.13
2023-09-27T12:21:40.650Z,96860.19
2023-09-27T12:22:42.357Z,96858.53
2023-09-27T12:23:45.608Z,96852.81
2023-09-27T12:24:47.884Z,96855.84
2023-09-27T12:25:49.789Z,96856.78
2023-09-27T12:26:51.283Z,96848.06
2023-09-27T12:27:52.829Z,96844.19
2023-09-27T12:28:54.267Z,96847.00
2023-09-27T12:29:55.765Z,96840.66
2023-09-27T12:30:57.140Z,96839.38
2023-09-27T12:31:58.606Z,96837.16
2023-09-27T12:33:00.410Z,96839.88
2023-09-27T12:34:02.029Z,96843.38
2023-09-27T12:35:04.197Z,96835.78
2023-09-27T12:36:05.904Z,96840.44
2023-09-27T12:37:07.437Z,96843.22
2023-09-27T12:38:11.298Z,96832.63
2023-09-27T12:39:13.446Z,96833.25
2023-09-27T12:40:15.324Z,96829.84
2023-09-27T12:41:18.737Z,96828.78
2023-09-27T12:42:20.198Z,96835.13
2023-09-27T12:43:21.602Z,96829.34
2023-09-27T12:44:23.205Z,96817.06
2023-09-27T12:45:24.822Z,96825.47
2023-09-27T12:46:26.491Z,96826.31
2023-09-27T12:47:28.295Z,96819.50
2023-09-27T12:48:30.193Z,96827.47
2023-09-27T12:49:36.767Z,96824.41
2023-09-27T12:50:46.198Z,96825.59
2023-09-27T12:51:49.929Z,96829.75
2023-09-27T12:52:51.779Z,96825.00
2023-09-27T12:53:54.414Z,96815.97
2023-09-27T12:54:56.250Z,96816.81
2023-09-27T12:55:59.164Z,96809.25
2023-09-27T12:57:00.978Z,96819.66
2023-09-27T12:58:02.474Z,96810.84
2023-09-27T12:59:04.180Z,96815.19
2023-09-27T13:00:09.929Z,96815.09
2023-09-27T13:01:19.275Z,96815.03
2023-09-27T13:02:20.987Z,96812.84
2023-09-27T13:03:23.339Z,96800.81
2023-09-27T13:04:25.012Z,96800.25
2023-09-27T13:05:26.555Z,96793.75
2023-09-27T13:06:27.993Z,96799.06
2023-09-27T13:07:30.393Z,96789.53
2023-09-27T13:08:31.930Z,96796.78
2023-09-27T13:09:33.407Z,96795.72
2023-09-27T13:10:36.102Z,96798.44
2023-09-27T13:11:38.156Z,96793.34
2023-09-27T13:12:42.339Z,96793.25
2023-09-27T13:13:45.130Z,96797.97
2023-09-27T13:14:46.580Z,96794.84
2023-09-27T13:15:48.028Z,96794.38
2023-09-27T13:16:49.453Z,96791.69
2023-09-27T13:17:50.902Z,96791.88
2023-09-27T13:18:54.599Z,96784.66
2023-09-27T13:19:56.235Z,96783.31
2023-09-27T13:20:57.676Z,96781.28
2023-09-27T13:21:59.573Z,96785.47
2023-09-27T13:23:01.052Z,96786.78
2023-09-27T13:24:04.153Z,96791.38
2023-09-27T13:25:07.804Z,96782.44
2023-09-27T13:26:09.627Z,96786.16
2023-09-27T13:27:11.006Z,96783.69
2023-09-27T13:28:12.435Z,96777.94
2023-09-27T13:29:13.868Z,96782.53
2023-09-27T13:30:29.748Z,96777.38
2023-09-27T13:31:36.902Z,96770.75
2023-09-27T13:32:38.676Z,96768.16
2023-09-27T13:33:42.875Z,96772.25
2023-09-27T13:34:47.928Z,96767.03
2023-09-27T13:35:49.832Z,96767.31
2023-09-27T13:36:51.649Z,96770.25
2023-09-27T13:37:53.328Z,96764.28
2023-09-27T13:38:55.083Z,96768.31
2023-09-27T13:39:57.546Z,96765.22
2023-09-27T13:41:00.610Z,96762.91
2023-09-27T13:42:02.365Z,96755.09
2023-09-27T13:43:04.730Z,96761.72
2023-09-27T13:44:06.887Z,96763.28
2023-09-27T13:45:14.406Z,96753.81
2023-09-27T13:46:15.971Z,96760.03
2023-09-27T13:47:17.363Z,96767.63
2023-09-27T13:48:18.919Z,96756.88
2023-09-27T13:49:20.500Z,96760.69
2023-09-27T13:50:22.160Z,96761.75
2023-09-27T13:51:23.549Z,96758.41
2023-09-27T13:52:28.903Z,96755.72
2023-09-27T13:53:30.373Z,96753.00
2023-09-27T13:54:32.477Z,96753.00
2023-09-27T13:55:34.048Z,96757.97
2023-09-27T13:56:38.100Z,96757.94
2023-09-27T13:57:40.570Z,96745.00
2023-09-27T13:58:42.726Z,96751.41
2023-09-27T13:59:44.625Z,96754.94
2023-09-27T14:00:46.130Z,96741.47
2023-09-27T14:01:47.597Z,96748.34
2023-09-27T14:02:49.299Z,96740.19
2023-09-27T14:03:51.011Z,96745.69
2023-09-27T14:04:54.545Z,96743.31
2023-09-27T14:05:56.102Z,96738.13
2023-09-27T14:06:58.382Z,96741.84
2023-09-27T14:07:59.877Z,96744.25
2023-09-27T14:09:01.436Z,96737.06
2023-09-27T14:10:04.222Z,96742.31
2023-09-27T14:11:05.605Z,96740.91
2023-09-27T14:12:07.147Z,96736.97
2023-09-27T14:13:08.658Z,96743.22
2023-09-27T14:14:10.169Z,96739.47
2023-09-27T14:15:13.177Z,96736.31
2023-09-27T14:16:19.821Z,96735.13
2023-09-27T14:17:21.558Z,96732.97
2023-09-27T14:18:23.872Z,96729.69
2023-09-27T14:19:26.834Z,96727.13
2023-09-27T14:20:28.261Z,96728.09
2023-09-27T14:21:29.704Z,96719.66
2023-09-27T14:22:31.092Z,96731.25
2023-09-27T14:23:33.375Z,96730.91
2023-09-27T14:24:35.540Z,96727.81
2023-09-27T14:25:38.622Z,96727.75
2023-09-27T14:26:40.969Z,96725.09
2023-09-27T14:27:42.520Z,96724.31
2023-09-27T14:28:43.927Z,96723.69
2023-09-27T14:29:45.447Z,96727.78
2023-09-27T14:30:46.904Z,96723.47
2023-09-27T14:31:48.372Z,96714.94
2023-09-27T14:32:50.140Z,96712.25
2023-09-27T14:33:51.732Z,96718.63
2023-09-27T14:34:57.587Z,96711.88
2023-09-27T14:36:04.038Z,96713.00
2023-09-27T14:37:07.454Z,96715.53
2023-09-27T14:38:09.491Z,96719.38
2023-09-27T14:39:14.273Z,96713.72
2023-09-27T14:40:15.706Z,96717.59
2023-09-27T14:41:17.341Z,96716.72
2023-09-27T14:42:18.713Z,96717.84
2023-09-27T14:43:20.195Z,96718.03
2023-09-27T14:44:21.615Z,96724.25
2023-09-27T14:45:32.202Z,96722.19
2023-09-27T14:46:34.995Z,96722.00
2023-09-27T14:47:36.711Z,96717.81
2023-09-27T14:48:38.502Z,96719.06
2023-09-27T14:49:40.117Z,96724.28
2023-09-27T14:50:41.536Z,96711.28
2023-09-27T14:51:43.192Z,96710.94
2023-09-27T14:52:44.712Z,96721.78
2023-09-27T14:53:46.182Z,96715.72
2023-09-27T14:54:47.554Z,96708.31
2023-09-27T14:55:48.972Z,96703.88
2023-09-27T14:56:50.489Z,96709.31
2023-09-27T14:57:52.068Z,96701.59
2023-09-27T14:58:53.549Z,96703.50
2023-09-27T14:59:55.058Z,96700.78
2023-09-27T15:00:56.601Z,96705.56
2023-09-27T15:01:59.095Z,96696.81
2023-09-27T15:03:01.097Z,96701.97
2023-09-27T15:04:02.726Z,96702.63
2023-09-27T15:05:04.680Z,96698.59
2023-09-27T15:06:06.890Z,96703.34
2023-09-27T15:07:08.415Z,96694.34
2023-09-27T15:08:09.842Z,96706.78
2023-09-27T15:09:11.245Z,96705.34
2023-09-27T15:10:12.846Z,96692.25
2023-09-27T15:11:24.226Z,96695.84
2023-09-27T15:12:25.571Z,96691.34
2023-09-27T15:13:27.762Z,96698.69
2023-09-27T15:14:29.232Z,96699.50
2023-09-27T15:15:30.652Z,96693.69
2023-09-27T15:16:32.842Z,96693.69
2023-09-27T15:17:44.659Z,96694.75
2023-09-27T15:18:47.969Z,96690.44
2023-09-27T15:19:49.568Z,96691.69
2023-09-27T15:20:51.082Z,96689.00
2023-09-27T15:21:52.443Z,96693.41
2023-09-27T15:22:53.881Z,96690.88
2023-09-27T15:23:55.689Z,96692.63
2023-09-27T15:24:57.226Z,96689.03
2023-09-27T15:25:59.784Z,96688.41
2023-09-27T15:27:01.348Z,96696.41
2023-09-27T15:28:02.864Z,96694.31
2023-09-27T15:29:04.299Z,96685.84
2023-09-27T15:30:09.064Z,96690.44
2023-09-27T15:31:12.881Z,96692.13
2023-09-27T15:32:14.401Z,96695.16
2023-09-27T15:33:16.268Z,96697.06
2023-09-27T15:34:17.782Z,96687.53
2023-09-27T15:35:19.560Z,96695.03
2023-09-27T15:36:20.944Z,96692.72
2023-09-27T15:37:22.342Z,96686.06
2023-09-27T15:38:24.997Z,96689.03
2023-09-27T15:39:26.434Z,96691.16
2023-09-27T15:40:31.452Z,96686.13
2023-09-27T15:41:32.955Z,96684.97
2023-09-27T15:42:34.359Z,96693.19
2023-09-27T15:43:36.699Z,96687.72
2023-09-27T15:44:41.853Z,96684.28
2023-09-27T15:45:56.880Z,96683.59
2023-09-27T15:46:58.294Z,96694.00
2023-09-27T15:47:59.730Z,96701.38
2023-09-27T15:49:01.341Z,96696.47
2023-09-27T15:50:04.342Z,96697.25
2023-09-27T15:51:07.595Z,96695.63
2023-09-27T15:52:09.870Z,96697.41
2023-09-27T15:53:12.966Z,96704.91
2023-09-27T15:54:18.807Z,96696.63
2023-09-27T15:55:21.178Z,96690.41
2023-09-27T15:56:22.607Z,96697.00
2023-09-27T15:57:23.951Z,96688.22
2023-09-27T15:58:26.390Z,96689.88
2023-09-27T15:59:28.288Z,96692.06
2023-09-27T16:00:30.364Z,96690.28
2023-09-27T16:01:31.836Z,96686.84
2023-09-27T16:02:33.387Z,96693.09
2023-09-27T16:03:36.617Z,96691.81
2023-09-27T16:04:49.698Z,96695.25
2023-09-27T16:05:53.627Z,96680.00
2023-09-27T16:06:55.123Z,96689.53
2023-09-27T16:07:56.652Z,96683.31
2023-09-27T16:08:58.178Z,96694.94
2023-09-27T16:09:59.727Z,96685.88
2023-09-27T16:11:01.150Z,96687.09
2023-09-27T16:12:03.246Z,96686.53
2023-09-27T16:13:04.924Z,96686.88
2023-09-27T16:14:06.344Z,96690.66
2023-09-27T16:15:08.648Z,96685.13
2023-09-27T16:16:10.089Z,96682.19
2023-09-27T16:17:11.562Z,96684.00
2023-09-27T16:18:13.107Z,96681.81
2023-09-27T16:19:14.540Z,96689.84
2023-09-27T16:20:16.196Z,96677.81
2023-09-27T16:21:19.591Z,96687.88
2023-09-27T16:22:21.189Z,96676.00
2023-09-27T16:23:22.818Z,96672.50
2023-09-27T16:24:24.262Z,96676.91
2023-09-27T16:25:25.792Z,96680.44
2023-09-27T16:26:27.380Z,96675.56
2023-09-27T16:27:28.777Z,96679.03
2023-09-27T16:28:30.827Z,96683.94
2023-09-27T16:29:32.724Z,96680.44
2023-09-27T16:30:36.086Z,96673.22
2023-09-27T16:31:38.313Z,96676.72
2023-09-27T16:32:39.934Z,96676.22
2023-09-27T16:33:41.901Z,96668.53
2023-09-27T16:34:43.521Z,96678.00
2023-09-27T16:35:44.914Z,96681.16
2023-09-27T16:36:46.275Z,96682.84
2023-09-27T16:37:48.016Z,96672.78
2023-09-27T16:38:49.616Z,96676.34
2023-09-27T16:39:51.634Z,96679.06
2023-09-27T16:40:53.100Z,96681.75
2023-09-27T16:41:54.687Z,96681.06
2023-09-27T16:42:56.124Z,96673.19
2023-09-27T16:43:57.678Z,96682.16
2023-09-27T16:44:59.928Z,96685.09
2023-09-27T16:46:07.018Z,96674.22
2023-09-27T16:47:08.493Z,96684.03
2023-09-27T16:48:09.923Z,96683.88
2023-09-27T16:49:11.363Z,96686.03
2023-09-27T16:50:12.780Z,96688.47
2023-09-27T16:51:14.542Z,96687.69
2023-09-27T16:52:15.903Z,96685.25
2023-09-27T16:53:17.499Z,96692.50
2023-09-27T16:54:19.014Z,96686.19
2023-09-27T16:55:20.428Z,96688.19
2023-09-27T16:56:21.847Z,96683.22
2023-09-27T16:57:23.311Z,96689.00
2023-09-27T16:58:26.690Z,96687.31
2023-09-27T16:59:28.270Z,96682.94
2023-09-27T17:00:29.732Z,96686.91
2023-09-27T17:01:31.471Z,96686.09
